createdAt,value
2018-07-20T00:01:45.775Z,5.50
2018-07-20T00:04:14.299Z,6.67
2018-07-20T00:06:43.229Z,6.20
2018-07-20T00:09:12.182Z,5.63
2018-07-20T00:11:40.763Z,6.83
2018-07-20T00:14:09.298Z,7.33
2018-07-20T00:16:38.013Z,6.30
2018-07-20T00:19:06.588Z,5.80
2018-07-20T00:21:35.135Z,6.23
2018-07-20T00:24:03.736Z,6.53
2018-07-20T00:26:32.409Z,6.67
2018-07-20T00:29:01.461Z,6.80
2018-07-20T00:31:30.625Z,6.93
2018-07-20T00:33:59.214Z,6.77
2018-07-20T00:36:28.339Z,7.40
2018-07-20T00:38:57.589Z,7.07
2018-07-20T00:41:26.137Z,5.90
2018-07-20T00:43:54.672Z,7.00
2018-07-20T00:46:23.423Z,6.63
2018-07-20T00:48:51.951Z,6.13
2018-07-20T00:51:20.512Z,6.67
2018-07-20T00:53:49.508Z,6.00
2018-07-20T00:56:18.291Z,5.77
2018-07-20T00:58:46.838Z,6.30
2018-07-20T01:01:16.247Z,6.77
2018-07-20T01:03:44.777Z,6.03
2018-07-20T01:06:13.576Z,6.43
2018-07-20T01:08:42.335Z,6.60
2018-07-20T01:11:10.991Z,7.53
2018-07-20T01:13:39.701Z,6.27
2018-07-20T01:16:08.658Z,7.43
2018-07-20T01:18:37.247Z,6.80
2018-07-20T01:21:06.106Z,6.37
2018-07-20T01:23:35.108Z,6.50
2018-07-20T01:26:03.664Z,7.23
2018-07-20T01:28:32.229Z,6.77
2018-07-20T01:31:00.799Z,7.50
2018-07-20T01:33:29.369Z,6.40
2018-07-20T01:35:58.259Z,7.40
2018-07-20T01:38:26.941Z,6.60
2018-07-20T01:40:55.496Z,7.17
2018-07-20T01:43:24.041Z,7.80
2018-07-20T01:45:52.903Z,6.70
2018-07-20T01:48:21.479Z,6.87
2018-07-20T01:50:50.008Z,8.10
2018-07-20T01:53:18.870Z,6.47
2018-07-20T01:55:47.416Z,5.97
2018-07-20T01:58:15.940Z,7.30
2018-07-20T02:00:44.657Z,7.47
2018-07-20T02:03:13.180Z,6.77
2018-07-20T02:05:41.711Z,7.83
2018-07-20T02:08:10.495Z,6.60
2018-07-20T02:10:39.051Z,7.40
2018-07-20T02:13:07.681Z,6.90
2018-07-20T02:15:36.531Z,6.80
2018-07-20T02:18:05.195Z,7.60
2018-07-20T02:20:33.752Z,7.27
2018-07-20T02:23:02.651Z,6.70
2018-07-20T02:25:31.315Z,7.90
2018-07-20T02:27:59.882Z,6.83
2018-07-20T02:30:28.520Z,6.03
2018-07-20T02:32:57.071Z,6.80
2018-07-20T02:35:25.616Z,6.83
2018-07-20T02:37:54.517Z,6.60
2018-07-20T02:40:23.229Z,7.50
2018-07-20T02:42:51.749Z,7.70
2018-07-20T02:45:20.420Z,7.00
2018-07-20T02:47:48.963Z,7.23
2018-07-20T02:50:17.656Z,7.87
2018-07-20T02:52:46.573Z,8.20
2018-07-20T02:55:15.116Z,7.40
2018-07-20T02:57:43.856Z,7.53
2018-07-20T03:00:12.485Z,7.30
2018-07-20T03:02:41.052Z,8.37
2018-07-20T03:05:09.595Z,8.47
2018-07-20T03:07:38.165Z,8.53
2018-07-20T03:10:06.723Z,9.10
2018-07-20T03:12:35.271Z,8.30
2018-07-20T03:15:04.985Z,8.70
2018-07-20T03:17:33.539Z,8.40
2018-07-20T03:20:02.179Z,8.10
2018-07-20T03:22:30.997Z,8.10
2018-07-20T03:24:59.552Z,8.03
2018-07-20T03:27:28.155Z,7.83
2018-07-20T03:29:56.849Z,7.90
2018-07-20T03:32:25.372Z,8.20
2018-07-20T03:34:54.357Z,9.00
2018-07-20T03:37:23.459Z,8.47
2018-07-20T03:39:52.447Z,9.00
2018-07-20T03:42:21.044Z,11.57
2018-07-20T03:44:49.617Z,8.00
2018-07-20T03:47:18.176Z,8.90
2018-07-20T03:49:46.743Z,8.93
2018-07-20T03:52:15.384Z,8.60
2018-07-20T03:54:43.891Z,9.03
2018-07-20T03:57:12.644Z,7.80
2018-07-20T03:59:41.687Z,8.50
2018-07-20T04:02:10.300Z,8.40
2018-07-20T04:04:38.863Z,9.10
2018-07-20T04:07:07.720Z,8.23
2018-07-20T04:09:36.239Z,8.87
2018-07-20T04:12:06.513Z,8.10
2018-07-20T04:14:35.303Z,8.73
2018-07-20T04:17:03.939Z,7.80
2018-07-20T04:19:32.449Z,8.90
2018-07-20T04:22:01.023Z,8.60
2018-07-20T04:24:29.583Z,8.13
2018-07-20T04:26:58.113Z,8.33
2018-07-20T04:29:26.795Z,8.97
2018-07-20T04:31:55.336Z,8.17
2018-07-20T04:34:24.752Z,9.30
2018-07-20T04:36:53.656Z,9.00
2018-07-20T04:39:22.184Z,8.27
2018-07-20T04:41:51.031Z,9.60
2018-07-20T04:44:19.773Z,8.40
2018-07-20T04:46:48.564Z,8.37
2018-07-20T04:49:17.199Z,7.80
2018-07-20T04:51:46.036Z,8.60
2018-07-20T04:54:14.576Z,9.03
2018-07-20T04:56:43.411Z,8.43
2018-07-20T04:59:12.065Z,9.00
2018-07-20T05:04:19.834Z,10.13
2018-07-20T05:06:48.588Z,8.67
2018-07-20T05:09:17.107Z,9.13
2018-07-20T05:11:45.683Z,8.73
2018-07-20T05:14:14.242Z,9.87
2018-07-20T05:16:42.756Z,9.40
2018-07-20T05:19:11.774Z,10.43
2018-07-20T05:21:40.332Z,10.63
2018-07-20T05:24:08.915Z,9.17
2018-07-20T05:26:37.795Z,10.50
2018-07-20T05:29:06.603Z,9.97
2018-07-20T05:31:35.134Z,9.67
2018-07-20T05:34:03.708Z,10.13
2018-07-20T05:36:32.232Z,10.00
2018-07-20T05:39:00.787Z,9.30
2018-07-20T05:41:29.351Z,9.47
2018-07-20T05:43:58.247Z,8.90
2018-07-20T05:46:26.784Z,8.97
2018-07-20T05:48:55.680Z,7.90
2018-07-20T05:51:24.203Z,8.47
2018-07-20T05:53:52.741Z,9.27
2018-07-20T05:56:21.459Z,7.70
2018-07-20T05:58:49.988Z,9.03
2018-07-20T06:01:18.535Z,9.97
2018-07-20T06:03:47.235Z,9.53
2018-07-20T06:06:16.080Z,9.93
2018-07-20T06:08:44.607Z,8.37
2018-07-20T06:11:13.306Z,8.60
2018-07-20T06:13:41.860Z,9.40
2018-07-20T06:16:10.387Z,8.20
2018-07-20T06:18:38.935Z,8.90
2018-07-20T06:21:07.916Z,8.70
2018-07-20T06:23:36.736Z,9.03
2018-07-20T06:26:05.376Z,8.17
2018-07-20T06:28:33.906Z,8.10
2018-07-20T06:31:02.415Z,8.70
2018-07-20T06:33:30.984Z,8.63
2018-07-20T06:35:59.527Z,8.47
2018-07-20T06:38:28.067Z,8.30
2018-07-20T06:40:56.719Z,10.57
2018-07-20T06:43:25.248Z,9.17
2018-07-20T06:45:53.781Z,8.23
2018-07-20T06:48:22.330Z,8.27
2018-07-20T06:50:50.845Z,8.60
2018-07-20T06:53:19.743Z,9.23
2018-07-20T06:55:48.351Z,8.13
2018-07-20T06:58:16.857Z,8.70
2018-07-20T07:00:45.391Z,8.53
2018-07-20T07:03:14.343Z,8.43
2018-07-20T07:05:42.863Z,8.20
2018-07-20T07:08:11.384Z,7.77
2018-07-20T07:10:39.950Z,8.47
2018-07-20T07:13:08.483Z,7.93
2018-07-20T07:15:37.039Z,6.80
2018-07-20T07:18:05.996Z,7.60
2018-07-20T07:20:34.507Z,7.20
2018-07-20T07:23:03.033Z,8.00
2018-07-20T07:25:31.576Z,7.23
2018-07-20T07:28:02.112Z,8.23
2018-07-20T07:30:30.679Z,7.70
2018-07-20T07:32:59.223Z,7.67
2018-07-20T07:35:27.823Z,7.40
2018-07-20T07:37:56.355Z,8.00
2018-07-20T07:40:24.863Z,7.83
2018-07-20T07:42:53.513Z,6.80
2018-07-20T07:45:22.161Z,8.03
2018-07-20T07:47:50.675Z,8.10
2018-07-20T07:50:19.191Z,8.03
2018-07-20T07:52:48.082Z,6.43
2018-07-20T07:55:16.615Z,6.47
2018-07-20T07:57:45.146Z,6.33
2018-07-20T08:00:13.723Z,6.27
2018-07-20T08:02:42.251Z,6.53
2018-07-20T08:05:10.772Z,6.07
2018-07-20T08:07:39.381Z,6.70
2018-07-20T08:10:08.058Z,6.17
2018-07-20T08:12:36.447Z,6.50
2018-07-20T08:15:05.748Z,6.83
2018-07-20T08:17:34.272Z,6.70
2018-07-20T08:20:02.864Z,6.10
2018-07-20T08:22:31.588Z,5.83
2018-07-20T08:25:00.380Z,6.07
2018-07-20T08:27:28.914Z,5.60
2018-07-20T08:29:57.484Z,6.13
2018-07-20T08:32:26.011Z,5.17
2018-07-20T08:34:54.531Z,5.40
2018-07-20T08:37:23.510Z,5.87
2018-07-20T08:39:52.063Z,5.80
2018-07-20T08:42:20.591Z,5.47
2018-07-20T08:44:49.200Z,5.47
2018-07-20T08:47:17.802Z,5.00
2018-07-20T08:49:48.645Z,5.10
2018-07-20T08:52:17.447Z,6.60
2018-07-20T08:54:46.063Z,5.23
2018-07-20T08:57:14.875Z,5.57
2018-07-20T08:59:43.487Z,5.20
2018-07-20T09:02:12.206Z,5.13
2018-07-20T09:04:40.842Z,4.87
2018-07-20T09:07:09.507Z,4.53
2018-07-20T09:09:38.113Z,4.73
2018-07-20T09:12:06.625Z,5.17
2018-07-20T09:14:35.611Z,4.50
2018-07-20T09:17:04.150Z,4.87
2018-07-20T09:19:32.680Z,4.90
2018-07-20T09:22:01.302Z,5.03
2018-07-20T09:24:29.822Z,5.00
2018-07-20T09:26:58.447Z,4.93
2018-07-20T09:29:27.383Z,5.00
2018-07-20T09:31:55.995Z,4.57
2018-07-20T09:34:24.929Z,4.50
2018-07-20T09:36:53.625Z,4.67
2018-07-20T09:39:22.142Z,3.90
2018-07-20T09:41:50.659Z,4.03
2018-07-20T09:44:19.215Z,4.60
2018-07-20T09:46:48.656Z,4.73
2018-07-20T09:49:17.179Z,4.20
2018-07-20T09:51:45.728Z,4.90
2018-07-20T09:54:14.288Z,3.83
2018-07-20T09:56:42.842Z,4.43
2018-07-20T09:59:11.390Z,4.27
2018-07-20T10:01:39.918Z,4.03
2018-07-20T10:04:08.475Z,4.73
2018-07-20T10:06:37.455Z,3.80
2018-07-20T10:09:09.546Z,3.80
2018-07-20T10:11:38.653Z,4.37
2018-07-20T10:14:07.492Z,3.75
2018-07-20T10:16:36.292Z,3.50
2018-07-20T10:19:05.059Z,3.67
2018-07-20T10:21:33.568Z,3.90
2018-07-20T10:24:02.297Z,3.10
2018-07-20T10:26:31.081Z,3.80
2018-07-20T10:29:00.131Z,3.40
2018-07-20T10:31:28.708Z,3.10
2018-07-20T10:33:57.600Z,4.30
2018-07-20T10:36:26.371Z,4.08
2018-07-20T10:38:54.904Z,5.17
2018-07-20T10:41:23.534Z,4.17
2018-07-20T10:43:52.071Z,3.80
2018-07-20T10:46:20.611Z,4.50
2018-07-20T10:48:49.675Z,4.20
2018-07-20T10:51:18.352Z,4.12
2018-07-20T10:53:46.846Z,3.95
2018-07-20T10:56:15.443Z,3.85
2018-07-20T10:58:43.979Z,3.25
2018-07-20T11:01:12.483Z,3.37
2018-07-20T11:03:41.184Z,3.40
2018-07-20T11:06:09.703Z,3.10
2018-07-20T11:08:38.351Z,3.37
2018-07-20T11:11:07.996Z,3.42
2018-07-20T11:13:36.565Z,3.55
2018-07-20T11:16:05.347Z,3.30
2018-07-20T11:18:33.922Z,3.52
2018-07-20T11:21:02.672Z,4.12
2018-07-20T11:23:31.327Z,3.50
2018-07-20T11:26:00.167Z,3.50
2018-07-20T11:28:28.865Z,3.10
2018-07-20T11:30:57.459Z,3.10
2018-07-20T11:33:26.120Z,3.30
2018-07-20T11:35:54.676Z,3.37
2018-07-20T11:38:23.941Z,3.02
2018-07-20T11:40:53.655Z,3.30
2018-07-20T11:43:22.257Z,3.92
2018-07-20T11:45:51.378Z,3.27
2018-07-20T11:48:20.662Z,3.40
2018-07-20T11:50:49.359Z,3.00
2018-07-20T11:53:17.941Z,3.30
2018-07-20T11:55:46.814Z,3.22
2018-07-20T11:58:15.358Z,3.05
2018-07-20T12:00:43.895Z,3.42
2018-07-20T12:03:12.430Z,3.40
2018-07-20T12:05:41.183Z,3.52
2018-07-20T12:08:09.711Z,2.90
2018-07-20T12:10:38.535Z,2.77
2018-07-20T12:13:07.251Z,3.22
2018-07-20T12:15:36.514Z,3.17
2018-07-20T12:18:06.198Z,3.33
2018-07-20T12:20:35.168Z,3.27
2018-07-20T12:23:04.458Z,3.22
2018-07-20T12:25:33.925Z,3.30
2018-07-20T12:28:03.627Z,2.92
2018-07-20T12:30:32.384Z,3.35
2018-07-20T12:33:01.262Z,2.77
2018-07-20T12:35:29.915Z,3.17
2018-07-20T12:37:59.196Z,3.12
2018-07-20T12:40:28.365Z,3.40
2018-07-20T12:42:56.919Z,2.67
2018-07-20T12:45:25.479Z,2.85
2018-07-20T12:47:54.686Z,2.70
2018-07-20T12:50:23.911Z,2.95
2018-07-20T12:52:52.520Z,2.47
2018-07-20T12:55:21.196Z,2.92
2018-07-20T12:57:50.227Z,3.15
2018-07-20T13:00:18.811Z,2.52
2018-07-20T13:02:47.355Z,3.00
2018-07-20T13:05:15.867Z,3.35
2018-07-20T13:07:44.420Z,3.10
2018-07-20T13:10:12.997Z,3.10
2018-07-20T13:12:41.544Z,3.60
2018-07-20T13:15:10.232Z,3.40
2018-07-20T13:17:38.850Z,3.60
2018-07-20T13:20:07.845Z,3.33
2018-07-20T13:22:37.138Z,3.83
2018-07-20T13:25:06.088Z,3.50
2018-07-20T13:27:34.788Z,3.47
2018-07-20T13:30:03.763Z,3.77
2018-07-20T13:32:33.232Z,4.03
2018-07-20T13:35:02.038Z,3.23
2018-07-20T13:37:30.569Z,3.47
2018-07-20T13:39:59.215Z,3.47
2018-07-20T13:45:18.477Z,3.50
2018-07-20T13:47:47.023Z,3.67
2018-07-20T13:50:15.570Z,3.87
2018-07-20T13:52:44.437Z,3.50
2018-07-20T13:55:12.987Z,3.17
2018-07-20T13:57:41.932Z,3.30
2018-07-20T14:00:10.836Z,3.73
2018-07-20T14:02:39.368Z,3.47
2018-07-20T14:05:07.971Z,3.83
2018-07-20T14:07:36.732Z,4.27
2018-07-20T14:10:05.755Z,4.20
2018-07-20T14:12:34.327Z,3.70
2018-07-20T14:15:02.966Z,4.20
2018-07-20T14:17:31.591Z,3.40
2018-07-20T14:20:00.239Z,4.40
2018-07-20T14:22:29.151Z,4.13
2018-07-20T14:24:57.778Z,3.93
2018-07-20T14:27:26.345Z,4.80
2018-07-20T14:29:55.059Z,4.77
2018-07-20T14:32:23.635Z,4.67
2018-07-20T14:34:52.321Z,4.40
2018-07-20T14:37:20.936Z,4.50
2018-07-20T14:39:49.577Z,4.10
2018-07-20T14:42:18.268Z,3.53
2018-07-20T14:44:47.340Z,4.13
2018-07-20T14:47:15.856Z,4.20
2018-07-20T14:49:44.396Z,4.13
2018-07-20T14:52:12.968Z,3.70
2018-07-20T14:54:41.535Z,3.87
2018-07-20T14:57:10.077Z,4.20
2018-07-20T14:59:38.772Z,4.40
2018-07-20T15:02:07.324Z,4.57
2018-07-20T15:04:35.851Z,3.93
2018-07-20T15:07:04.485Z,4.10
2018-07-20T15:09:33.011Z,5.57
2018-07-20T15:12:01.580Z,4.00
2018-07-20T15:14:30.211Z,4.00
2018-07-20T15:16:58.780Z,4.60
2018-07-20T15:19:27.687Z,4.50
2018-07-20T15:21:56.424Z,4.57
2018-07-20T15:24:24.941Z,4.50
2018-07-20T15:26:53.471Z,5.40
2018-07-20T15:29:22.103Z,4.57
2018-07-20T15:31:50.645Z,5.10
2018-07-20T15:34:19.240Z,4.40
2018-07-20T15:36:48.176Z,3.50
2018-07-20T15:39:16.736Z,3.93
2018-07-20T15:41:46.032Z,4.80
2018-07-20T15:44:15.162Z,4.87
2018-07-20T15:46:44.005Z,4.83
2018-07-20T15:49:13.121Z,5.30
2018-07-20T15:53:35.343Z,5.00
2018-07-20T15:54:10.490Z,5.77
2018-07-20T15:56:39.319Z,5.93
2018-07-20T15:59:08.276Z,4.90
2018-07-20T16:01:37.099Z,5.10
2018-07-20T16:04:05.812Z,5.00
2018-07-20T16:06:34.579Z,5.00
2018-07-20T16:09:04.047Z,5.60
2018-07-20T16:11:32.655Z,4.83
2018-07-20T16:14:01.273Z,5.03
2018-07-20T16:16:29.983Z,5.60
2018-07-20T16:18:58.529Z,5.00
2018-07-20T16:21:27.344Z,4.90
2018-07-20T16:23:55.988Z,5.40
2018-07-20T16:26:24.677Z,4.37
2018-07-20T16:28:53.729Z,4.63
2018-07-20T16:31:22.419Z,5.50
2018-07-20T16:33:50.967Z,3.87
2018-07-20T16:36:19.782Z,4.57
2018-07-20T16:38:48.311Z,4.53
2018-07-20T16:41:16.914Z,4.23
2018-07-20T16:43:45.786Z,4.17
2018-07-20T16:46:15.264Z,4.83
2018-07-20T16:48:43.806Z,5.83
2018-07-20T16:51:12.570Z,8.37
2018-07-20T16:53:41.100Z,4.30
2018-07-20T16:56:09.635Z,4.17
2018-07-20T16:58:38.472Z,4.23
2018-07-20T17:01:07.092Z,5.70
2018-07-20T17:03:36.132Z,6.03
2018-07-20T17:06:05.147Z,6.50
2018-07-20T17:08:33.770Z,6.57
2018-07-20T17:11:02.368Z,6.60
2018-07-20T17:13:31.008Z,6.63
2018-07-20T17:15:59.555Z,7.27
2018-07-20T17:18:28.151Z,5.90
2018-07-20T17:20:56.792Z,6.40
2018-07-20T17:23:25.399Z,5.40
2018-07-20T17:25:53.931Z,5.43
2018-07-20T17:28:22.633Z,5.23
2018-07-20T17:30:51.158Z,4.63
2018-07-20T17:33:19.741Z,5.33
2018-07-20T17:35:48.455Z,4.10
2018-07-20T17:38:17.510Z,4.60
2018-07-20T17:40:46.329Z,4.47
2018-07-20T17:43:15.098Z,4.13
2018-07-20T17:45:43.671Z,5.00
2018-07-20T17:48:12.199Z,6.40
2018-07-20T17:50:41.092Z,4.50
2018-07-20T17:53:09.626Z,4.53
2018-07-20T17:55:38.218Z,5.40
2018-07-20T17:58:07.283Z,4.97
2018-07-20T18:00:36.316Z,5.00
2018-07-20T18:03:04.883Z,5.43
2018-07-20T18:05:33.860Z,5.20
2018-07-20T18:08:02.830Z,5.27
2018-07-20T18:10:31.472Z,5.97
2018-07-20T18:13:00.119Z,6.03
2018-07-20T18:15:28.675Z,5.90
2018-07-20T18:17:57.303Z,5.80
2018-07-20T18:20:25.897Z,6.13
2018-07-20T18:22:54.423Z,7.03
2018-07-20T18:25:22.987Z,5.93
2018-07-20T18:27:51.591Z,7.10
2018-07-20T18:30:20.168Z,6.97
2018-07-20T18:32:48.764Z,6.27
2018-07-20T18:35:17.836Z,5.57
2018-07-20T18:37:46.355Z,5.57
2018-07-20T18:40:14.887Z,6.53
2018-07-20T18:42:43.951Z,6.10
2018-07-20T18:45:12.475Z,6.27
2018-07-20T18:47:41.016Z,5.50
2018-07-20T18:50:10.535Z,6.30
2018-07-20T18:52:39.189Z,6.40
2018-07-20T18:55:08.067Z,7.73
2018-07-20T18:57:36.721Z,6.03
2018-07-20T19:00:05.780Z,6.77
2018-07-20T19:02:34.329Z,6.37
2018-07-20T19:05:03.488Z,6.93
2018-07-20T19:07:32.272Z,6.87
2018-07-20T19:10:01.073Z,6.60
2018-07-20T19:12:29.672Z,7.93
2018-07-20T19:14:58.328Z,7.40
2018-07-20T19:17:27.256Z,6.13
2018-07-20T19:19:56.314Z,7.67
2018-07-20T19:22:24.956Z,8.30
2018-07-20T19:24:53.481Z,6.77
2018-07-20T19:27:22.064Z,7.00
2018-07-20T19:29:50.608Z,6.83
2018-07-20T19:32:19.129Z,7.30
2018-07-20T19:34:47.708Z,6.57
2018-07-20T19:37:16.336Z,6.93
2018-07-20T19:39:45.024Z,6.87
2018-07-20T19:42:13.794Z,7.17
2018-07-20T19:44:42.457Z,6.63
2018-07-20T19:47:11.159Z,7.50
2018-07-20T19:49:39.878Z,8.00
2018-07-20T19:54:58.729Z,7.27
2018-07-20T19:57:27.522Z,7.97
2018-07-20T19:59:56.079Z,7.40
2018-07-20T20:02:24.847Z,7.60
2018-07-20T20:04:53.470Z,8.70
2018-07-20T20:07:22.350Z,8.10
2018-07-20T20:09:50.902Z,7.63
2018-07-20T20:12:19.551Z,9.10
2018-07-20T20:14:48.356Z,7.77
2018-07-20T20:17:17.304Z,7.80
2018-07-20T20:19:45.943Z,7.37
2018-07-20T20:22:14.908Z,7.43
2018-07-20T20:24:43.584Z,7.80
2018-07-20T20:27:12.522Z,8.60
2018-07-20T20:29:41.372Z,7.93
2018-07-20T20:32:10.399Z,8.60
2018-07-20T20:34:39.368Z,8.10
2018-07-20T20:37:08.182Z,8.33
2018-07-20T20:39:36.927Z,8.30
2018-07-20T20:42:06.202Z,9.47
2018-07-20T20:44:34.772Z,7.70
2018-07-20T20:47:03.400Z,8.70
2018-07-20T20:49:31.932Z,8.63
2018-07-20T20:52:00.484Z,8.50
2018-07-20T20:54:29.902Z,8.53
2018-07-20T20:56:59.040Z,8.30
2018-07-20T20:59:27.576Z,9.10
2018-07-20T21:01:56.174Z,7.80
2018-07-20T21:04:24.792Z,8.23
2018-07-20T21:06:53.493Z,8.17
2018-07-20T21:09:22.415Z,7.67
2018-07-20T21:11:51.095Z,9.33
2018-07-20T21:14:19.792Z,8.40
2018-07-20T21:16:48.512Z,8.87
2018-07-20T21:19:17.299Z,9.13
2018-07-20T21:21:46.187Z,7.90
2018-07-20T21:24:14.881Z,8.90
2018-07-20T21:26:43.532Z,9.33
2018-07-20T21:29:12.142Z,7.80
2018-07-20T21:31:41.358Z,8.30
2018-07-20T21:34:10.388Z,9.67
2018-07-20T21:36:39.553Z,8.20
2018-07-20T21:39:11.027Z,9.60
2018-07-20T21:41:39.807Z,8.80
2018-07-20T21:44:08.685Z,8.83
2018-07-20T21:46:37.329Z,8.73
2018-07-20T21:49:05.869Z,8.60
2018-07-20T21:51:34.505Z,9.50
2018-07-20T21:54:03.241Z,8.57
2018-07-20T21:56:31.779Z,9.30
2018-07-20T21:59:00.311Z,8.47
2018-07-20T22:01:29.410Z,9.53
2018-07-20T22:03:58.233Z,8.47
2018-07-20T22:06:26.808Z,8.87
2018-07-20T22:08:55.372Z,7.67
2018-07-20T22:11:23.903Z,9.20
2018-07-20T22:13:53.342Z,8.63
2018-07-20T22:16:22.054Z,9.70
2018-07-20T22:18:50.623Z,9.43
2018-07-20T22:21:19.175Z,9.10
2018-07-20T22:23:47.751Z,9.47
2018-07-20T22:26:16.288Z,9.67
2018-07-20T22:28:44.814Z,9.70
2018-07-20T22:31:13.407Z,8.90
2018-07-20T22:33:41.945Z,9.90
2018-07-20T22:36:10.515Z,10.00
2018-07-20T22:38:45.191Z,9.67
2018-07-20T22:41:13.736Z,12.20
2018-07-20T22:43:42.254Z,9.03
2018-07-20T22:46:11.135Z,10.10
2018-07-20T22:48:40.068Z,9.70
2018-07-20T22:51:09.574Z,10.43
2018-07-20T22:53:38.162Z,10.10
2018-07-20T22:56:06.734Z,10.10
2018-07-20T22:58:35.259Z,11.10
2018-07-20T23:01:04.772Z,11.67
2018-07-20T23:03:33.489Z,9.37
2018-07-20T23:06:02.044Z,9.60
2018-07-20T23:08:30.732Z,10.23
2018-07-20T23:10:59.377Z,10.60
2018-07-20T23:13:28.097Z,10.00
2018-07-20T23:15:58.302Z,11.13
2018-07-20T23:18:27.156Z,11.00
2018-07-20T23:20:56.754Z,10.37
2018-07-20T23:23:43.341Z,10.23
2018-07-20T23:26:11.928Z,9.70
2018-07-20T23:28:41.061Z,11.60
2018-07-20T23:31:09.731Z,10.10
2018-07-20T23:33:38.295Z,10.10
2018-07-20T23:36:07.036Z,10.73
2018-07-20T23:38:35.971Z,10.50
2018-07-20T23:41:04.620Z,10.63
2018-07-20T23:43:33.459Z,11.03
2018-07-20T23:46:02.064Z,10.37
2018-07-20T23:48:30.643Z,10.40
2018-07-20T23:50:59.340Z,10.67
2018-07-20T23:53:28.176Z,11.40
2018-07-20T23:55:56.739Z,11.33
2018-07-20T23:58:25.328Z,11.20
